Time;durP1;ratioP1;P1;durP2;ratioP2;P2;SDS_P1;SDS_P2;PMS_P1;PMS_P2;Temp;Humidity;BMP_temperature;BMP_pressure;BME280_temperature;BME280_humidity;BME280_pressure;Samples;Min_cycle;Max_cycle;Signal;HPM_P1;HPM_P2
2023/05/13 00:03:05;;;;;;;;;;;;;;;11.87;100.00;97567.34;18556250;32;19953;-55
2023/05/13 00:13:09;;;;;;;;;;;;;;;11.96;100.00;97569.50;18569859;32;19963;-56
2023/05/13 00:23:13;;;;;;;;;;;;;;;12.00;100.00;97579.53;18569146;32;19994;-54
2023/05/13 00:33:16;;;;;;;;;;;;;;;11.98;100.00;97575.47;18567665;31;20344;-54
2023/05/13 00:43:18;;;;;;;;;;;;;;;12.00;100.00;97575.97;18567695;32;19961;-55
2023/05/13 00:53:21;;;;;;;;;;;;;;;12.00;100.00;97568.69;18567511;32;19996;-54
2023/05/13 01:03:46;;;;;;;;;;;;;;;12.00;100.00;97571.38;18566814;32;20456;-55
2023/05/13 01:13:51;;;;;;;;;;;;;;;12.01;100.00;97580.31;18565984;32;19945;-55
2023/05/13 01:23:54;;;;;;;;;;;;;;;12.06;100.00;97580.28;18565746;32;20291;-55
2023/05/13 01:33:57;;;;;;;;;;;;;;;12.11;100.00;97579.44;18564870;32;19983;-55
2023/05/13 01:43:59;;;;;;;;;;;;;;;12.12;100.00;97571.00;18564472;32;19960;-55
2023/05/13 01:54:01;;;;;;;;;;;;;;;12.12;100.00;97579.16;18549209;32;19977;-55
2023/05/13 02:04:03;;;;;;;;;;;;;;;12.07;100.00;97581.88;18563065;32;20380;-55
2023/05/13 02:14:06;;;;;;;;;;;;;;;12.02;100.00;97590.06;18562581;32;19948;-54
2023/05/13 02:24:08;;;;;;;;;;;;;;;11.99;100.00;97604.16;18547948;32;19960;-54
2023/05/13 02:34:11;;;;;;;;;;;;;;;11.93;100.00;97602.56;18561627;32;20044;-56
2023/05/13 02:44:13;;;;;;;;;;;;;;;11.85;100.00;97591.22;18546592;32;19989;-55
2023/05/13 02:54:16;;;;;;;;;;;;;;;11.82;100.00;97596.38;18575203;32;19984;-55
2023/05/13 03:04:18;;;;;;;;;;;;;;;11.74;100.00;97600.47;18582246;32;19979;-55
2023/05/13 03:14:21;;;;;;;;;;;;;;;11.69;100.00;97597.81;18581851;31;20230;-55
2023/05/13 03:24:24;;;;;;;;;;;;;;;11.58;100.00;97596.22;18567418;32;19956;-54
2023/05/13 03:34:26;;;;;;;;;;;;;;;11.57;100.00;97606.28;18581388;32;20339;-55
2023/05/13 03:44:29;;;;;;;;;;;;;;;11.52;100.00;97606.28;18581080;32;20310;-55
2023/05/13 03:54:32;;;;;;;;;;;;;;;11.51;100.00;97616.31;18580698;32;19967;-54
2023/05/13 04:04:34;;;;;;;;;;;;;;;11.46;100.00;97620.94;18574252;32;20307;-55
2023/05/13 04:14:39;;;;;;;;;;;;;;;11.42;100.00;97626.09;18570061;32;19979;-55
2023/05/13 04:24:41;;;;;;;;;;;;;;;11.40;100.00;97636.41;18569115;32;20047;-54
2023/05/13 04:34:43;;;;;;;;;;;;;;;11.41;100.00;97640.72;18568690;32;19963;-55
2023/05/13 04:44:46;;;;;;;;;;;;;;;11.37;100.00;97645.06;18567707;32;19961;-55
2023/05/13 04:54:48;;;;;;;;;;;;;;;11.33;100.00;97646.69;18567589;32;19971;-54
2023/05/13 05:04:51;;;;;;;;;;;;;;;11.38;100.00;97656.72;18552449;31;19991;-54
2023/05/13 05:14:53;;;;;;;;;;;;;;;11.48;100.00;97653.94;18565953;32;19957;-55
2023/05/13 05:24:56;;;;;;;;;;;;;;;11.63;100.00;97659.31;18565985;32;19995;-55
2023/05/13 05:35:00;;;;;;;;;;;;;;;11.83;100.00;97671.97;18564685;31;19944;-54
2023/05/13 05:45:04;;;;;;;;;;;;;;;11.93;100.00;97675.72;18564172;32;19979;-56
2023/05/13 05:55:07;;;;;;;;;;;;;;;12.09;100.00;97682.72;18549572;32;19956;-55
2023/05/13 06:05:10;;;;;;;;;;;;;;;12.21;100.00;97685.09;18562772;32;19952;-56
2023/05/13 06:15:13;;;;;;;;;;;;;;;12.26;100.00;97692.37;18562439;32;20008;-54
2023/05/13 06:25:16;;;;;;;;;;;;;;;12.21;100.00;97701.34;18546508;32;19975;-56
2023/05/13 06:35:18;;;;;;;;;;;;;;;12.31;100.00;97705.91;18561468;32;19960;-55
2023/05/13 06:45:22;;;;;;;;;;;;;;;12.39;100.00;97708.03;18561185;32;19961;-55
2023/05/13 06:55:25;;;;;;;;;;;;;;;12.38;100.00;97706.41;18560881;32;19953;-55
2023/05/13 07:05:28;;;;;;;;;;;;;;;12.39;100.00;97705.31;18560439;32;19996;-55
2023/05/13 07:15:32;;;;;;;;;;;;;;;12.52;100.00;97701.94;18560510;32;19983;-55
2023/05/13 07:25:35;;;;;;;;;;;;;;;12.68;100.00;97712.72;18559792;32;19969;-55
2023/05/13 07:35:39;;;;;;;;;;;;;;;12.64;100.00;97715.16;18561534;31;20306;-56
2023/05/13 07:45:41;;;;;;;;;;;;;;;12.90;100.00;97716.91;18571239;31;19960;-54
2023/05/13 07:55:44;;;;;;;;;;;;;;;13.15;100.00;97719.34;18570810;32;20280;-54
2023/05/13 08:05:48;;;;;;;;;;;;;;;13.11;100.00;97721.03;18556069;32;19967;-55
2023/05/13 08:15:52;;;;;;;;;;;;;;;12.95;100.00;97717.66;18554917;32;19973;-55
2023/05/13 08:25:57;;;;;;;;;;;;;;;12.94;100.00;97715.22;18569110;32;20276;-54
2023/05/13 08:36:00;;;;;;;;;;;;;;;12.97;100.00;97717.38;18568550;32;19984;-55
2023/05/13 08:46:05;;;;;;;;;;;;;;;13.11;100.00;97722.94;18567278;32;20008;-56
2023/05/13 08:56:09;;;;;;;;;;;;;;;13.27;100.00;97727.13;18567682;32;19948;-55
2023/05/13 09:06:12;;;;;;;;;;;;;;;13.56;100.00;97731.78;18552258;32;19961;-55
2023/05/13 09:16:15;;;;;;;;;;;;;;;14.37;100.00;97744.66;18565976;32;20309;-56
2023/05/13 09:26:28;;;;;;;;;;;;;;;14.57;100.00;97751.75;18565860;32;19957;-55
2023/05/13 09:36:35;;;;;;;;;;;;;;;14.44;100.00;97742.38;18564464;31;20008;-56
2023/05/13 09:46:41;;;;;;;;;;;;;;;14.47;100.00;97747.25;18564209;32;20325;-55
2023/05/13 09:56:45;;;;;;;;;;;;;;;14.58;100.00;97745.22;18563686;32;19953;-55
2023/05/13 10:06:49;;;;;;;;;;;;;;;15.23;100.00;97747.19;18562423;32;20260;-56
2023/05/13 10:16:53;;;;;;;;;;;;;;;15.41;100.00;97756.41;18562591;32;20354;-55
2023/05/13 10:26:56;;;;;;;;;;;;;;;15.57;100.00;97753.44;18562077;32;19967;-56
2023/05/13 10:37:18;;;;;;;;;;;;;;;16.08;100.00;97748.94;18561361;31;19959;-56
2023/05/13 10:47:21;;;;;;;;;;;;;;;16.68;100.00;97755.31;18546960;32;19968;-54
2023/05/13 10:57:29;;;;;;;;;;;;;;;16.64;100.00;97741.47;18546720;32;19980;-56
2023/05/13 11:07:53;;;;;;;;;;;;;;;16.98;100.00;97750.25;18546949;32;20299;-55
2023/05/13 11:17:56;;;;;;;;;;;;;;;16.98;100.00;97742.06;18572540;32;19960;-55
2023/05/13 11:27:59;;;;;;;;;;;;;;;16.70;100.00;97740.22;18545504;32;19973;-54
2023/05/13 11:38:03;;;;;;;;;;;;;;;17.19;100.00;97734.19;18571999;31;20352;-56
2023/05/13 11:48:19;;;;;;;;;;;;;;;17.71;100.00;97737.19;18571610;32;19959;-55
2023/05/13 11:58:22;;;;;;;;;;;;;;;18.08;94.77;97734.28;18571193;32;19993;-55
2023/05/13 12:08:25;;;;;;;;;;;;;;;18.12;89.41;97746.22;18556171;31;19949;-55
2023/05/13 12:18:28;;;;;;;;;;;;;;;17.62;93.52;97741.81;18570082;31;19960;-56
2023/05/13 12:28:32;;;;;;;;;;;;;;;17.57;93.10;97748.22;18568133;32;19985;-55
2023/05/13 12:38:34;;;;;;;;;;;;;;;17.64;98.68;97736.84;18568748;31;19961;-56
2023/05/13 12:48:38;;;;;;;;;;;;;;;18.00;99.15;97738.63;18554609;32;19992;-55
2023/05/13 12:58:40;;;;;;;;;;;;;;;18.18;85.55;97728.50;18567274;32;20294;-56
2023/05/13 13:08:43;;;;;;;;;;;;;;;18.67;93.49;97727.63;18566552;31;20319;-56
2023/05/13 13:18:46;;;;;;;;;;;;;;;19.17;75.43;97737.28;18566080;32;19952;-56
2023/05/13 13:28:49;;;;;;;;;;;;;;;18.84;89.41;97730.34;18565490;32;20004;-54
2023/05/13 13:38:53;;;;;;;;;;;;;;;18.26;90.77;97718.72;18564794;31;20028;-56
2023/05/13 13:48:55;;;;;;;;;;;;;;;17.92;85.42;97714.78;18549812;32;19968;-56
2023/05/13 13:58:58;;;;;;;;;;;;;;;18.58;81.89;97709.25;18549748;32;19960;-54
2023/05/13 14:09:02;;;;;;;;;;;;;;;18.66;81.88;97707.63;18563470;32;19953;-55
2023/05/13 14:19:06;;;;;;;;;;;;;;;18.69;77.58;97707.00;18562789;32;19948;-55
2023/05/13 14:29:09;;;;;;;;;;;;;;;18.38;90.08;97698.94;18562105;32;19997;-53
2023/05/13 14:39:14;;;;;;;;;;;;;;;18.21;94.65;97688.75;18546507;31;19975;-54
2023/05/13 14:49:17;;;;;;;;;;;;;;;18.06;89.06;97676.34;18560716;32;19960;-55
2023/05/13 14:59:20;;;;;;;;;;;;;;;18.00;80.11;97677.63;18546759;32;20370;-55
2023/05/13 15:09:24;;;;;;;;;;;;;;;18.64;78.37;97668.81;18560353;32;19952;-55
2023/05/13 15:19:27;;;;;;;;;;;;;;;19.09;78.57;97676.69;18560341;32;19956;-55
2023/05/13 15:29:30;;;;;;;;;;;;;;;18.77;81.97;97677.97;18559847;32;19979;-55
2023/05/13 15:39:32;;;;;;;;;;;;;;;18.45;79.25;97672.69;18559434;31;19972;-55
2023/05/13 15:49:35;;;;;;;;;;;;;;;17.60;86.62;97676.50;18559403;32;19953;-57
2023/05/13 15:59:38;;;;;;;;;;;;;;;16.62;100.00;97663.72;18564170;31;20302;-55
2023/05/13 16:09:41;;;;;;;;;;;;;;;15.64;100.00;97660.37;18570548;32;20012;-54
2023/05/13 16:19:44;;;;;;;;;;;;;;;15.31;100.00;97663.19;18555558;32;19957;-55
2023/05/13 16:29:47;;;;;;;;;;;;;;;15.04;100.00;97659.31;18569176;32;19967;-55
2023/05/13 16:39:53;;;;;;;;;;;;;;;14.69;100.00;97666.94;18553841;32;19983;-55
2023/05/13 16:49:58;;;;;;;;;;;;;;;14.54;100.00;97666.06;18567817;32;19953;-54
2023/05/13 17:00:02;;;;;;;;;;;;;;;14.61;100.00;97671.13;18567525;32;20299;-55
2023/05/13 17:10:06;;;;;;;;;;;;;;;14.74;100.00;97669.59;18566232;32;19967;-55
2023/05/13 17:20:09;;;;;;;;;;;;;;;14.76;100.00;97666.56;18565938;32;19961;-56
2023/05/13 17:30:12;;;;;;;;;;;;;;;14.71;100.00;97671.00;18551282;32;20220;-56
2023/05/13 17:40:14;;;;;;;;;;;;;;;14.73;100.00;97668.78;18550647;32;19980;-56
2023/05/13 17:50:17;;;;;;;;;;;;;;;14.74;100.00;97667.69;18565138;32;20340;-55
2023/05/13 18:00:21;;;;;;;;;;;;;;;14.58;100.00;97666.28;18563835;32;19964;-56
2023/05/13 18:10:26;;;;;;;;;;;;;;;14.40;100.00;97674.19;18562730;32;20009;-55
2023/05/13 18:20:30;;;;;;;;;;;;;;;14.16;100.00;97676.16;18561850;32;19960;-56
2023/05/13 18:30:32;;;;;;;;;;;;;;;13.91;100.00;97664.53;18547752;32;19976;-55
2023/05/13 18:40:36;;;;;;;;;;;;;;;13.61;100.00;97671.13;18547216;32;19980;-56
2023/05/13 18:50:39;;;;;;;;;;;;;;;13.34;100.00;97676.00;18534002;32;19979;-55
2023/05/13 19:00:41;;;;;;;;;;;;;;;13.09;100.00;97681.69;18547205;31;19968;-55
2023/05/13 19:10:44;;;;;;;;;;;;;;;12.88;100.00;97693.56;18546549;32;19961;-55
2023/05/13 19:20:47;;;;;;;;;;;;;;;12.71;100.00;97709.41;18560235;32;19957;-55
2023/05/13 19:30:49;;;;;;;;;;;;;;;12.62;100.00;97711.12;18561084;32;19961;-55
2023/05/13 19:40:52;;;;;;;;;;;;;;;12.44;100.00;97726.94;18572581;32;19988;-55
2023/05/13 19:50:56;;;;;;;;;;;;;;;12.34;100.00;97727.81;18557232;32;19968;-55
2023/05/13 20:00:59;;;;;;;;;;;;;;;12.27;100.00;97732.75;18571052;32;20008;-55
2023/05/13 20:11:02;;;;;;;;;;;;;;;12.10;100.00;97740.41;18570412;32;19952;-55
2023/05/13 20:21:05;;;;;;;;;;;;;;;11.84;100.00;97744.03;18529950;32;19960;-56
2023/05/13 20:31:07;;;;;;;;;;;;;;;11.47;100.00;97747.09;18542697;32;19997;-55
2023/05/13 20:41:10;;;;;;;;;;;;;;;11.22;100.00;97751.47;18568687;32;20322;-55
2023/05/13 20:51:12;;;;;;;;;;;;;;;10.95;100.00;97749.03;18567409;31;19944;-56
2023/05/13 21:01:15;;;;;;;;;;;;;;;10.66;100.00;97741.44;18540318;32;20031;-55
2023/05/13 21:11:17;;;;;;;;;;;;;;;10.58;100.00;97747.38;18566689;32;19979;-55
2023/05/13 21:21:20;;;;;;;;;;;;;;;10.57;100.00;97757.38;18566195;32;20336;-55
2023/05/13 21:31:22;;;;;;;;;;;;;;;10.59;100.00;97749.00;18551691;32;19957;-55
2023/05/13 21:41:25;;;;;;;;;;;;;;;10.50;100.00;97746.84;18564811;32;20003;-55
2023/05/13 21:51:27;;;;;;;;;;;;;;;10.44;100.00;97745.22;18564185;32;19959;-55
2023/05/13 22:01:30;;;;;;;;;;;;;;;10.47;100.00;97747.38;18548804;32;19972;-55
2023/05/13 22:11:32;;;;;;;;;;;;;;;10.52;100.00;97738.44;18563117;32;19953;-55
2023/05/13 22:21:35;;;;;;;;;;;;;;;10.48;100.00;97732.78;18562382;32;19960;-54
2023/05/13 22:31:37;;;;;;;;;;;;;;;10.33;100.00;97719.19;18547588;32;20336;-55
2023/05/13 22:41:40;;;;;;;;;;;;;;;10.20;100.00;97719.72;18561328;31;20375;-55
2023/05/13 22:51:42;;;;;;;;;;;;;;;10.13;100.00;97723.47;18561432;32;19957;-55
2023/05/13 23:01:44;;;;;;;;;;;;;;;9.99;100.00;97719.66;18560746;32;20007;-55
2023/05/13 23:11:46;;;;;;;;;;;;;;;9.83;100.00;97719.56;18555770;32;19991;-55
2023/05/13 23:21:49;;;;;;;;;;;;;;;9.70;100.00;97720.06;18573448;32;20340;-54
2023/05/13 23:31:51;;;;;;;;;;;;;;;9.65;100.00;97711.94;18559032;32;19986;-55
2023/05/13 23:41:53;;;;;;;;;;;;;;;9.71;100.00;97716.28;18572100;32;19990;-55
2023/05/13 23:51:55;;;;;;;;;;;;;;;9.82;100.00;97696.34;18571652;32;19944;-55
